createdAt,value
2018-09-05T00:00:11.844Z,20.26
2018-09-05T00:02:39.945Z,20.23
2018-09-05T00:05:08.066Z,20.19
2018-09-05T00:07:36.320Z,20.20
2018-09-05T00:10:04.440Z,20.16
2018-09-05T00:12:32.494Z,20.13
2018-09-05T00:15:00.612Z,20.11
2018-09-05T00:17:28.659Z,20.09
2018-09-05T00:19:56.863Z,20.08
2018-09-05T00:22:24.901Z,20.07
2018-09-05T00:24:52.960Z,20.05
2018-09-05T00:27:21.023Z,20.03
2018-09-05T00:29:49.067Z,20.02
2018-09-05T00:32:17.132Z,20.00
2018-09-05T00:34:45.223Z,19.99
2018-09-05T00:37:13.282Z,19.96
2018-09-05T00:39:41.681Z,19.93
2018-09-05T00:42:09.715Z,19.89
2018-09-05T00:44:37.815Z,19.87
2018-09-05T00:47:05.864Z,19.87
2018-09-05T00:49:33.917Z,19.88
2018-09-05T00:52:01.960Z,19.85
2018-09-05T00:54:29.998Z,19.84
2018-09-05T00:56:58.196Z,19.80
2018-09-05T00:59:26.252Z,19.78
2018-09-05T01:01:54.286Z,19.75
2018-09-05T01:04:22.360Z,19.72
2018-09-05T01:06:50.381Z,19.71
2018-09-05T01:09:18.438Z,19.67
2018-09-05T01:11:46.476Z,19.67
2018-09-05T01:14:14.503Z,19.65
2018-09-05T01:16:42.720Z,19.63
2018-09-05T01:19:10.757Z,19.58
2018-09-05T01:21:38.814Z,19.59
2018-09-05T01:24:07.207Z,19.56
2018-09-05T01:26:35.227Z,19.54
2018-09-05T01:29:03.251Z,19.52
2018-09-05T01:31:31.289Z,19.49
2018-09-05T01:33:59.325Z,19.47
2018-09-05T01:36:27.355Z,19.43
2018-09-05T01:38:55.388Z,19.42
2018-09-05T01:41:23.576Z,19.40
2018-09-05T01:43:51.621Z,19.38
2018-09-05T01:46:19.642Z,19.37
2018-09-05T01:48:47.673Z,19.34
2018-09-05T01:51:15.709Z,19.33
2018-09-05T01:53:43.748Z,19.29
2018-09-05T01:56:11.789Z,19.26
2018-09-05T01:58:39.812Z,19.23
2018-09-05T02:01:07.891Z,19.22
2018-09-05T02:03:35.948Z,19.20
2018-09-05T02:06:04.719Z,19.19
2018-09-05T02:08:32.810Z,19.18
2018-09-05T02:11:00.784Z,19.16
2018-09-05T02:13:28.820Z,19.15
2018-09-05T02:15:56.865Z,19.11
2018-09-05T02:18:24.900Z,19.08
2018-09-05T02:20:52.943Z,19.05
2018-09-05T02:23:20.969Z,19.05
2018-09-05T02:25:49.009Z,19.02
2018-09-05T02:28:17.037Z,19.02
2018-09-05T02:30:45.069Z,19.02
2018-09-05T02:33:13.106Z,18.98
2018-09-05T02:35:41.144Z,18.95
2018-09-05T02:38:09.164Z,18.93
2018-09-05T02:40:37.218Z,18.89
2018-09-05T02:43:05.248Z,18.89
2018-09-05T02:45:33.277Z,18.88
2018-09-05T02:48:01.310Z,18.85
2018-09-05T02:50:29.355Z,18.83
2018-09-05T02:52:57.416Z,18.78
2018-09-05T02:55:30.794Z,18.76
2018-09-05T02:57:58.847Z,18.71
2018-09-05T03:00:26.892Z,18.70
2018-09-05T03:02:54.971Z,18.69
2018-09-05T03:05:23.035Z,18.68
2018-09-05T03:07:51.067Z,18.65
2018-09-05T03:10:19.110Z,18.63
2018-09-05T03:12:47.168Z,18.62
2018-09-05T03:15:15.197Z,18.59
2018-09-05T03:17:43.248Z,18.54
2018-09-05T03:20:11.331Z,18.53
2018-09-05T03:22:39.371Z,18.50
2018-09-05T03:27:46.853Z,18.45
2018-09-05T03:30:14.895Z,18.42
2018-09-05T03:32:43.079Z,18.40
2018-09-05T03:35:10.996Z,18.37
2018-09-05T03:37:39.049Z,18.38
2018-09-05T03:40:07.104Z,18.34
2018-09-05T03:42:35.181Z,18.31
2018-09-05T03:45:03.231Z,18.29
2018-09-05T03:47:31.263Z,18.24
2018-09-05T03:49:59.312Z,18.22
2018-09-05T03:52:27.384Z,18.17
2018-09-05T03:54:55.437Z,18.15
2018-09-05T03:57:23.493Z,18.10
2018-09-05T03:59:51.532Z,18.10
2018-09-05T04:02:19.561Z,18.07
2018-09-05T04:04:47.608Z,18.07
2018-09-05T04:07:15.638Z,18.06
2018-09-05T04:09:43.669Z,18.02
2018-09-05T04:12:11.771Z,17.98
2018-09-05T04:14:39.764Z,17.97
2018-09-05T04:17:08.031Z,17.94
2018-09-05T04:19:36.063Z,17.90
2018-09-05T04:22:04.848Z,17.89
2018-09-05T04:24:32.972Z,17.86
2018-09-05T04:27:01.020Z,17.83
2018-09-05T04:29:29.167Z,17.79
2018-09-05T04:31:57.100Z,17.77
2018-09-05T04:34:25.120Z,17.74
2018-09-05T04:36:53.161Z,17.72
2018-09-05T04:39:21.200Z,17.77
2018-09-05T04:41:49.255Z,17.82
2018-09-05T04:44:17.288Z,17.82
2018-09-05T04:46:45.322Z,17.78
2018-09-05T04:49:13.484Z,17.73
2018-09-05T04:51:41.647Z,17.73
2018-09-05T04:54:09.672Z,17.71
2018-09-05T04:56:37.699Z,17.68
2018-09-05T04:59:06.792Z,17.67
2018-09-05T05:01:35.037Z,17.66
2018-09-05T05:04:03.023Z,17.66
2018-09-05T05:06:31.081Z,17.64
2018-09-05T05:08:59.135Z,17.63
2018-09-05T05:11:27.158Z,17.62
2018-09-05T05:13:55.378Z,17.60
2018-09-05T05:16:23.368Z,17.60
2018-09-05T05:18:51.671Z,17.59
2018-09-05T05:21:19.736Z,17.58
2018-09-05T05:23:47.756Z,17.58
2018-09-05T05:26:15.865Z,17.57
2018-09-05T05:28:44.215Z,17.55
2018-09-05T05:31:12.315Z,17.55
2018-09-05T05:33:40.344Z,17.56
2018-09-05T05:36:08.528Z,17.57
2018-09-05T05:38:36.558Z,17.59
2018-09-05T05:41:04.800Z,17.59
2018-09-05T05:43:33.029Z,17.60
2018-09-05T05:46:01.064Z,17.59
2018-09-05T05:48:29.090Z,17.59
2018-09-05T05:50:57.299Z,17.60
2018-09-05T05:53:25.318Z,17.59
2018-09-05T05:55:53.337Z,17.63
2018-09-05T05:58:21.376Z,17.65
2018-09-05T06:00:49.546Z,17.67
2018-09-05T06:03:17.484Z,17.70
2018-09-05T06:05:45.524Z,17.71
2018-09-05T06:08:25.535Z,17.74
2018-09-05T06:10:53.584Z,17.78
2018-09-05T06:13:21.624Z,17.81
2018-09-05T06:15:49.657Z,17.84
2018-09-05T06:18:17.950Z,17.87
2018-09-05T06:20:45.972Z,17.89
2018-09-05T06:23:14.016Z,17.94
2018-09-05T06:25:42.054Z,17.94
2018-09-05T06:28:10.074Z,18.00
2018-09-05T06:30:38.412Z,18.03
2018-09-05T06:33:06.299Z,18.06
2018-09-05T06:35:34.441Z,18.08
2018-09-05T06:38:02.478Z,18.13
2018-09-05T06:40:30.520Z,18.17
2018-09-05T06:42:58.597Z,18.23
2018-09-05T06:45:26.696Z,18.32
2018-09-05T06:47:54.656Z,18.37
2018-09-05T06:50:22.718Z,18.42
2018-09-05T06:52:50.938Z,18.47
2018-09-05T06:55:18.972Z,18.50
2018-09-05T06:57:47.025Z,18.54
2018-09-05T07:00:17.334Z,18.61
2018-09-05T07:02:45.366Z,18.65
2018-09-05T07:05:13.409Z,18.70
2018-09-05T07:07:41.445Z,18.77
2018-09-05T07:10:09.515Z,18.85
2018-09-05T07:12:37.529Z,18.95
2018-09-05T07:15:06.159Z,19.10
2018-09-05T07:17:34.245Z,19.27
2018-09-05T07:20:02.253Z,19.43
2018-09-05T07:22:30.289Z,19.63
2018-09-05T07:24:58.694Z,19.82
2018-09-05T07:27:26.832Z,20.00
2018-09-05T07:29:54.871Z,20.21
2018-09-05T07:32:22.889Z,20.44
2018-09-05T07:34:50.932Z,20.65
2018-09-05T07:37:19.121Z,20.88
2018-09-05T07:39:47.149Z,21.08
2018-09-05T07:42:15.196Z,21.27
2018-09-05T07:44:43.376Z,21.44
2018-09-05T07:47:11.404Z,21.67
2018-09-05T07:49:39.428Z,21.84
2018-09-05T07:52:07.507Z,22.06
2018-09-05T07:54:35.518Z,22.30
2018-09-05T07:57:03.543Z,22.55
2018-09-05T07:59:31.599Z,22.79
2018-09-05T08:01:59.628Z,22.98
2018-09-05T08:04:27.670Z,23.14
2018-09-05T08:09:22.834Z,23.43
2018-09-05T08:11:50.928Z,23.59
2018-09-05T08:14:18.908Z,23.75
2018-09-05T08:16:47.207Z,23.86
2018-09-05T08:19:15.240Z,24.00
2018-09-05T08:21:43.295Z,24.09
2018-09-05T08:24:11.511Z,24.23
2018-09-05T08:26:39.540Z,24.42
2018-09-05T08:29:07.624Z,24.59
2018-09-05T08:31:35.632Z,24.78
2018-09-05T08:34:03.657Z,24.87
2018-09-05T08:36:31.877Z,25.02
2018-09-05T08:38:59.847Z,25.14
2018-09-05T08:41:27.840Z,25.20
2018-09-05T08:43:55.871Z,25.35
2018-09-05T08:46:24.084Z,25.50
2018-09-05T08:48:52.100Z,25.64
2018-09-05T08:51:20.312Z,25.77
2018-09-05T08:53:49.114Z,25.93
2018-09-05T08:56:17.235Z,26.04
2018-09-05T08:58:45.545Z,26.23
2018-09-05T09:01:13.525Z,26.31
2018-09-05T09:03:41.819Z,26.37
2018-09-05T09:06:09.892Z,26.45
2018-09-05T09:08:37.906Z,26.47
2018-09-05T09:11:05.952Z,26.61
2018-09-05T09:13:33.998Z,26.66
2018-09-05T09:16:02.031Z,26.81
2018-09-05T09:18:30.064Z,26.90
2018-09-05T09:20:58.104Z,27.00
2018-09-05T09:23:26.134Z,27.08
2018-09-05T09:25:54.165Z,27.20
2018-09-05T09:28:22.391Z,27.32
2018-09-05T09:30:50.396Z,27.37
2018-09-05T09:33:18.432Z,27.44
2018-09-05T09:35:46.636Z,27.47
2018-09-05T09:38:14.676Z,27.56
2018-09-05T09:40:42.716Z,27.74
2018-09-05T09:43:10.756Z,27.86
2018-09-05T09:45:38.813Z,27.96
2018-09-05T09:48:07.024Z,28.04
2018-09-05T09:50:35.061Z,28.06
2018-09-05T09:53:03.086Z,28.13
2018-09-05T09:55:31.144Z,28.25
2018-09-05T09:57:59.164Z,28.36
2018-09-05T10:00:32.520Z,28.45
2018-09-05T10:03:06.072Z,28.53
2018-09-05T10:05:39.483Z,28.54
2018-09-05T10:08:10.224Z,28.65
2018-09-05T10:10:43.679Z,28.68
2018-09-05T10:13:12.919Z,28.82
2018-09-05T10:15:46.172Z,28.91
2018-09-05T10:18:19.506Z,29.02
2018-09-05T10:20:54.283Z,29.08
2018-09-05T10:23:22.305Z,29.20
2018-09-05T10:25:50.364Z,29.29
2018-09-05T10:28:18.552Z,29.29
2018-09-05T10:30:46.719Z,29.21
2018-09-05T10:33:14.747Z,29.34
2018-09-05T10:35:42.952Z,29.51
2018-09-05T10:38:10.973Z,29.59
2018-09-05T10:40:39.006Z,29.75
2018-09-05T10:43:07.061Z,29.85
2018-09-05T10:45:35.084Z,29.94
2018-09-05T10:48:03.163Z,29.83
2018-09-05T10:50:31.240Z,29.81
2018-09-05T10:52:59.366Z,29.84
2018-09-05T10:55:27.399Z,29.86
2018-09-05T10:57:55.436Z,29.89
2018-09-05T11:00:23.487Z,29.99
2018-09-05T11:02:51.528Z,30.00
2018-09-05T11:05:25.923Z,30.07
2018-09-05T11:07:54.124Z,30.09
2018-09-05T11:10:22.195Z,30.10
2018-09-05T11:12:50.200Z,30.12
2018-09-05T11:15:18.252Z,30.12
2018-09-05T11:17:46.284Z,30.13
2018-09-05T11:20:14.433Z,30.14
2018-09-05T11:22:42.491Z,30.19
2018-09-05T11:25:10.527Z,30.42
2018-09-05T11:27:38.611Z,30.40
2018-09-05T11:30:06.679Z,30.49
2018-09-05T11:32:35.266Z,30.55
2018-09-05T11:35:03.305Z,30.63
2018-09-05T11:37:32.275Z,30.67
2018-09-05T11:40:00.345Z,30.77
2018-09-05T11:42:28.380Z,30.73
2018-09-05T11:44:56.421Z,30.85
2018-09-05T11:47:24.459Z,30.90
2018-09-05T11:49:52.516Z,31.04
2018-09-05T11:52:21.004Z,31.08
2018-09-05T11:54:49.047Z,31.13
2018-09-05T11:57:17.181Z,31.10
2018-09-05T11:59:47.362Z,31.28
2018-09-05T12:02:15.836Z,31.32
2018-09-05T12:04:44.051Z,31.23
2018-09-05T12:07:12.528Z,31.13
2018-09-05T12:09:40.568Z,31.09
2018-09-05T12:12:08.653Z,31.20
2018-09-05T12:14:36.643Z,31.28
2018-09-05T12:17:50.363Z,31.27
2018-09-05T12:20:18.404Z,31.33
2018-09-05T12:22:46.472Z,31.36
2018-09-05T12:25:14.554Z,31.36
2018-09-05T12:27:42.739Z,31.27
2018-09-05T12:30:10.755Z,31.31
2018-09-05T12:32:38.788Z,31.46
2018-09-05T12:35:07.197Z,31.62
2018-09-05T12:37:35.230Z,31.53
2018-09-05T12:40:03.277Z,31.47
2018-09-05T12:42:31.346Z,31.24
2018-09-05T12:44:59.417Z,30.94
2018-09-05T12:47:27.465Z,30.75
2018-09-05T12:49:55.957Z,30.59
2018-09-05T12:52:24.013Z,30.45
2018-09-05T12:54:52.036Z,30.42
2018-09-05T12:57:20.076Z,30.34
2018-09-05T12:59:48.307Z,30.31
2018-09-05T13:02:16.364Z,30.23
2018-09-05T13:04:44.391Z,29.98
2018-09-05T13:07:12.459Z,29.89
2018-09-05T13:09:40.679Z,29.94
2018-09-05T13:12:08.708Z,29.99
2018-09-05T13:14:36.917Z,30.07
2018-09-05T13:17:05.197Z,30.12
2018-09-05T13:19:33.233Z,30.15
2018-09-05T13:22:01.265Z,30.29
2018-09-05T13:24:29.290Z,30.38
2018-09-05T13:26:57.420Z,30.34
2018-09-05T13:29:25.419Z,30.29
2018-09-05T13:31:53.606Z,30.24
2018-09-05T13:34:21.832Z,30.34
2018-09-05T13:36:49.938Z,30.29
2018-09-05T13:39:17.968Z,30.26
2018-09-05T13:41:46.084Z,30.26
2018-09-05T13:44:14.139Z,30.29
2018-09-05T13:46:42.344Z,30.28
2018-09-05T13:49:10.395Z,30.29
2018-09-05T13:51:38.638Z,30.20
2018-09-05T13:54:07.511Z,30.20
2018-09-05T13:56:35.573Z,30.31
2018-09-05T13:59:05.032Z,30.38
2018-09-05T14:01:33.076Z,30.52
2018-09-05T14:04:01.120Z,30.42
2018-09-05T14:06:29.164Z,30.32
2018-09-05T14:08:57.254Z,30.30
2018-09-05T14:11:25.335Z,30.28
2018-09-05T14:13:53.428Z,30.35
2018-09-05T14:16:21.472Z,30.36
2018-09-05T14:18:49.688Z,30.30
2018-09-05T14:21:17.712Z,30.26
2018-09-05T14:23:46.308Z,30.17
2018-09-05T14:26:14.342Z,30.12
2018-09-05T14:28:42.392Z,30.00
2018-09-05T14:31:10.428Z,29.85
2018-09-05T14:33:38.522Z,29.67
2018-09-05T14:36:06.558Z,29.64
2018-09-05T14:38:34.927Z,29.62
2018-09-05T14:41:02.964Z,29.55
2018-09-05T14:43:31.181Z,29.42
2018-09-05T14:45:59.210Z,29.34
2018-09-05T14:48:27.275Z,29.19
2018-09-05T14:50:55.322Z,29.04
2018-09-05T14:53:23.487Z,29.03
2018-09-05T14:55:51.502Z,29.06
2018-09-05T14:58:19.560Z,29.07
2018-09-05T15:00:47.748Z,29.11
2018-09-05T15:03:15.797Z,29.05
2018-09-05T15:05:43.989Z,29.04
2018-09-05T15:08:14.248Z,29.02
2018-09-05T15:10:42.892Z,29.03
2018-09-05T15:13:10.937Z,29.01
2018-09-05T15:15:39.025Z,28.92
2018-09-05T15:18:07.228Z,28.89
2018-09-05T15:20:35.262Z,28.86
2018-09-05T15:23:03.304Z,28.85
2018-09-05T15:25:31.498Z,28.82
2018-09-05T15:27:59.752Z,28.85
2018-09-05T15:30:27.805Z,28.82
2018-09-05T15:32:56.512Z,28.68
2018-09-05T15:35:24.548Z,28.65
2018-09-05T15:37:52.586Z,28.65
2018-09-05T15:40:20.622Z,28.64
2018-09-05T15:42:49.088Z,28.62
2018-09-05T15:45:17.125Z,28.61
2018-09-05T15:47:45.197Z,28.64
2018-09-05T15:50:13.253Z,28.62
2018-09-05T15:52:41.357Z,28.58
2018-09-05T15:55:09.688Z,28.63
2018-09-05T15:57:37.731Z,28.63
2018-09-05T16:02:54.092Z,28.67
2018-09-05T16:05:22.110Z,28.72
2018-09-05T16:07:50.349Z,28.74
2018-09-05T16:10:18.411Z,28.71
2018-09-05T16:12:46.378Z,28.64
2018-09-05T16:15:14.418Z,28.58
2018-09-05T16:17:42.425Z,28.52
2018-09-05T16:20:10.704Z,28.49
2018-09-05T16:22:38.714Z,28.45
2018-09-05T16:25:06.864Z,28.42
2018-09-05T16:27:34.920Z,28.36
2018-09-05T16:30:03.145Z,28.31
2018-09-05T16:32:31.353Z,28.23
2018-09-05T16:35:03.341Z,28.19
2018-09-05T16:37:31.408Z,28.14
2018-09-05T16:39:59.409Z,28.12
2018-09-05T16:42:27.465Z,28.10
2018-09-05T16:44:56.664Z,28.08
2018-09-05T16:47:24.765Z,28.06
2018-09-05T16:49:52.996Z,27.99
2018-09-05T16:52:25.224Z,27.93
2018-09-05T16:54:53.389Z,27.83
2018-09-05T16:57:21.416Z,27.75
2018-09-05T16:59:49.695Z,27.70
2018-09-05T17:02:17.714Z,27.64
2018-09-05T17:04:45.737Z,27.59
2018-09-05T17:07:14.189Z,27.56
2018-09-05T17:09:42.219Z,27.51
2018-09-05T17:12:10.398Z,27.43
2018-09-05T17:14:38.412Z,27.34
2018-09-05T17:17:06.465Z,27.26
2018-09-05T17:19:34.486Z,27.18
2018-09-05T17:22:02.980Z,27.12
2018-09-05T17:24:30.999Z,27.07
2018-09-05T17:26:59.868Z,26.97
2018-09-05T17:29:27.896Z,26.89
2018-09-05T17:31:55.924Z,26.82
2018-09-05T17:34:23.936Z,26.72
2018-09-05T17:36:51.959Z,26.62
2018-09-05T17:39:20.034Z,26.53
2018-09-05T17:41:48.114Z,26.47
2018-09-05T17:44:16.173Z,26.39
2018-09-05T17:46:44.184Z,26.31
2018-09-05T17:49:12.208Z,26.23
2018-09-05T17:51:40.216Z,26.16
2018-09-05T17:54:08.402Z,26.08
2018-09-05T17:56:36.841Z,26.03
2018-09-05T17:59:05.869Z,25.98
2018-09-05T18:01:34.082Z,25.92
2018-09-05T18:04:02.323Z,25.83
2018-09-05T18:06:30.364Z,25.77
2018-09-05T18:08:58.384Z,25.71
2018-09-05T18:11:27.417Z,25.64
2018-09-05T18:13:55.450Z,25.57
2018-09-05T18:16:23.469Z,25.50
2018-09-05T18:18:51.490Z,25.44
2018-09-05T18:21:19.717Z,25.38
2018-09-05T18:23:47.798Z,25.32
2018-09-05T18:26:15.827Z,25.25
2018-09-05T18:28:43.895Z,25.18
2018-09-05T18:31:12.031Z,25.13
2018-09-05T18:33:40.063Z,25.07
2018-09-05T18:36:08.334Z,25.02
2018-09-05T18:38:36.354Z,24.97
2018-09-05T18:41:04.933Z,24.91
2018-09-05T18:43:32.935Z,24.85
2018-09-05T18:46:00.967Z,24.79
2018-09-05T18:48:29.097Z,24.74
2018-09-05T18:50:57.109Z,24.70
2018-09-05T18:53:25.164Z,24.65
2018-09-05T18:55:53.354Z,24.58
2018-09-05T18:58:21.697Z,24.52
2018-09-05T19:00:49.726Z,24.47
2018-09-05T19:03:17.751Z,24.41
2018-09-05T19:05:45.904Z,24.37
2018-09-05T19:08:13.993Z,24.33
2018-09-05T19:10:42.096Z,24.29
2018-09-05T19:13:10.129Z,24.23
2018-09-05T19:15:38.164Z,24.16
2018-09-05T19:18:06.188Z,24.13
2018-09-05T19:20:34.354Z,24.07
2018-09-05T19:23:03.011Z,24.04
2018-09-05T19:25:31.044Z,24.00
2018-09-05T19:27:59.080Z,23.97
2018-09-05T19:30:27.134Z,23.92
2018-09-05T19:32:55.180Z,23.87
2018-09-05T19:35:24.189Z,23.85
2018-09-05T19:37:52.373Z,23.81
2018-09-05T19:40:20.393Z,23.79
2018-09-05T19:42:48.417Z,23.73
2018-09-05T19:45:17.497Z,23.69
2018-09-05T19:47:45.517Z,23.63
2018-09-05T19:50:14.326Z,23.59
2018-09-05T19:52:42.280Z,23.55
2018-09-05T19:55:10.349Z,23.51
2018-09-05T19:57:38.390Z,23.45
2018-09-05T20:00:06.393Z,23.38
2018-09-05T20:02:34.608Z,23.33
2018-09-05T20:07:30.677Z,23.22
2018-09-05T20:09:59.573Z,23.16
2018-09-05T20:12:27.585Z,23.10
2018-09-05T20:14:55.880Z,23.06
2018-09-05T20:17:23.902Z,23.02
2018-09-05T20:19:51.912Z,22.99
2018-09-05T20:22:19.929Z,22.94
2018-09-05T20:24:47.956Z,22.89
2018-09-05T20:27:16.223Z,22.85
2018-09-05T20:29:44.248Z,22.78
2018-09-05T20:32:12.263Z,22.74
2018-09-05T20:34:40.288Z,22.70
2018-09-05T20:37:08.336Z,22.66
2018-09-05T20:39:36.344Z,22.61
2018-09-05T20:42:04.971Z,22.59
2018-09-05T20:44:32.993Z,22.53
2018-09-05T20:47:01.011Z,22.52
2018-09-05T20:49:29.200Z,22.49
2018-09-05T20:51:57.216Z,22.47
2018-09-05T20:54:25.251Z,22.42
2018-09-05T20:56:53.870Z,22.39
2018-09-05T20:59:21.888Z,22.36
2018-09-05T21:01:49.904Z,22.35
2018-09-05T21:04:18.401Z,22.30
2018-09-05T21:06:46.422Z,22.28
2018-09-05T21:09:14.453Z,22.26
2018-09-05T21:11:42.608Z,22.23
2018-09-05T21:14:10.769Z,22.19
2018-09-05T21:16:38.812Z,22.18
2018-09-05T21:19:07.021Z,22.13
2018-09-05T21:21:35.207Z,22.11
2018-09-05T21:24:03.224Z,22.08
2018-09-05T21:26:31.364Z,22.07
2018-09-05T21:28:59.373Z,22.03
2018-09-05T21:31:27.428Z,22.00
2018-09-05T21:33:55.716Z,21.97
2018-09-05T21:36:23.884Z,21.93
2018-09-05T21:38:51.910Z,21.89
2018-09-05T21:41:20.088Z,21.86
2018-09-05T21:43:48.120Z,21.86
2018-09-05T21:46:16.142Z,21.81
2018-09-05T21:48:44.191Z,21.78
2018-09-05T21:51:12.267Z,21.74
2018-09-05T21:53:40.413Z,21.69
2018-09-05T21:56:08.517Z,21.67
2018-09-05T21:58:36.594Z,21.63
2018-09-05T22:01:04.856Z,21.59
2018-09-05T22:03:33.008Z,21.56
2018-09-05T22:06:01.020Z,21.53
2018-09-05T22:08:29.125Z,21.50
2018-09-05T22:11:01.340Z,21.46
2018-09-05T22:13:29.636Z,21.42
2018-09-05T22:15:57.668Z,21.37
2018-09-05T22:18:25.747Z,21.30
2018-09-05T22:20:53.840Z,21.23
2018-09-05T22:23:22.184Z,21.18
2018-09-05T22:25:50.208Z,21.13
2018-09-05T22:28:18.245Z,21.08
2018-09-05T22:30:46.268Z,21.05
2018-09-05T22:33:14.280Z,21.03
2018-09-05T22:35:42.303Z,20.99
2018-09-05T22:38:10.311Z,20.95
2018-09-05T22:40:43.888Z,20.91
2018-09-05T22:43:23.428Z,20.85
2018-09-05T22:46:02.919Z,20.79
2018-09-05T22:50:53.904Z,20.75
2018-09-05T22:53:38.635Z,20.62
2018-09-05T22:58:24.181Z,20.56
2018-09-05T23:01:18.314Z,20.40
2018-09-05T23:03:55.489Z,20.32
2018-09-05T23:08:43.357Z,20.29
2018-09-05T23:13:26.771Z,20.19
2018-09-05T23:16:06.652Z,20.08
2018-09-05T23:18:46.159Z,20.03
2018-09-05T23:21:22.340Z,19.98
2018-09-05T23:23:56.444Z,19.96
2018-09-05T23:26:24.836Z,19.95
2018-09-05T23:28:52.999Z,19.95
2018-09-05T23:31:21.240Z,19.95
2018-09-05T23:33:49.569Z,19.95
2018-09-05T23:36:17.731Z,19.94
2018-09-05T23:38:45.828Z,19.91
2018-09-05T23:41:13.964Z,19.86
2018-09-05T23:43:42.028Z,19.87
2018-09-05T23:46:10.052Z,19.86
2018-09-05T23:48:38.327Z,19.85
2018-09-05T23:51:06.724Z,19.82
2018-09-05T23:53:34.970Z,19.80
2018-09-05T23:56:03.207Z,19.78
2018-09-05T23:58:31.220Z,19.75
